East Orange, Vermont
Current Conditions -  °F | °C
As of 5:51 PM on Monday 22 Dec 2014 (Local Time) from KMPV Reporting Station
Light Snow Light Snow  
Wind Chill: -1°   Ceiling: 1900
Heat Index: -1°   Visibility: 5mi
Dew Point: -3°   Wind: 0mph
Humidity: 88%   Direction: NA
Pressure: 30.32"   Gusts: NA
Location:  44.1344°N, 72.2538°W
Report Text: KMPV 222251Z AUTO 00000KT 5SM -SN BR BKN019 OVC035 M01/M03 A3032 RMK AO2 SNB2155E05B49 SLP287 P0000 T10111028
Loading
Personal Weather Stations






























Interactive Weather Map New forecast layout! Learn more

10-Day Weather Forecast

Advertisements
Track Severe Weather on mobile